DRP weather

Delta Regional Airport
Colt, Arkansas, United States

Public forecast

Using degrees Fahrenheit for public forecast. Weather courtesy of forecast.io.

METAR (pilot weather report)

Closest report is West Memphis Municipal Airport, 29.1 nm (53.9 km) E. Retrieved 2019/09/19 16:53 UTC (51 minutes ago):

KAWM 191653Z AUTO 14007KT 9SM CLR 32/23 A3003 RMK AO2 SLP162 T03220228 $

TAF (pilot weather forecast)

Closest forecast is Memphis International Airport, 42.0 nm (77.8 km) E. Retrieved 2019/09/19 12:28 UTC (5 hours ago):

TAF KMEM 191125Z 1912/2018 12005KT P6SM SKC FM191500 14007KT P6SM FEW045 SCT250 FM192200 15007KT P6SM VCSH SCT050 BKN250 FM200700 16008KT P6SM BKN045 OVC250 FM201500 17011KT P6SM BKN040